Terminal Aerodrome Forecast
Issued by NWS

Home | Current Version | Previous Version | Graphics & Text | Print | Product List | Glossary On
Versions: 1 2 3 4 5 6 7 8 9 10 11 12 13 14
000
FTUS43 KGRB 200500
TAFAUW
TAF
KAUW 200525Z 2006/2106 19005KT P6SM SCT045 BKN090
      TEMPO 2007/2011 BKN045
     FM201500 20012G19KT P6SM SCT045 SCT090
     FM202300 21007KT P6SM SCT100=

USA.gov is the U.S. government's official web portal to all federal, state and local government web resources and services.